• Join FlightAware (Why Join?)
  • Login
  • US Flag 
01:49AM EDT


 

Airport Tracker/Info


-or-


 

Live Flight TrackerFlight Track Log ✈ DAL268 ✈ 03-Jul-2013 ✈ KSFO - KJFK

Flight Track Log - Related Links

Times and Time Zones

All times are in EDT time to prevent confusion due to time zone crossing. See the DAL268 flight status page for this flight to view local times or setup timezone preferences in your user account.

Time Position Orientation Groundspeed Altitude Reporting Facility
EDT Latitude Longitude Course Direction KTS MPH feet Rate Location/Type
02:35PM 37.6150 -122.3820 222° Southwest 15 17  Level FlightAware
02:37PM 37.6150 -122.3800 90° East 11 13  Level FlightAware
02:39PM 37.7767 -122.2067 38° Northeast  Level FlightAware Approximate
02:40PM 37.8661 -122.1172 38° Northeast  Level FlightAware Approximate
02:41PM 37.9555 -122.0278 38° Northeast  Level FlightAware Approximate
02:42PM 38.0372 -121.9363 35° Northeast  Level FlightAware Approximate
02:43PM 38.1304 -121.8530 38° Northeast  Level FlightAware Approximate
02:44PM 38.2199 -121.7634 38° Northeast  Level FlightAware Approximate
02:45PM 38.3096 -121.6738 38° Northeast  Level FlightAware Approximate
02:46PM 38.3992 -121.5842 38° Northeast  Level FlightAware Approximate
02:47PM 38.4726 -121.4754 46° Northeast  Level FlightAware Approximate
02:48PM 38.5394 -121.3622 52° Northeast  Level FlightAware Approximate
02:51PM 37.8074 -122.1760 38° Northeast  Level FlightAware Approximate
02:52PM 37.8968 -122.0866 38° Northeast  Level FlightAware Approximate
02:53PM 37.9833 -121.9953 90° East  Level FlightAware Approximate
02:54PM 38.0694 -121.9081 35° Northeast  Level FlightAware Approximate
02:55PM 38.1611 -121.8222 38° Northeast  Level FlightAware Approximate
02:56PM 37.6050 -122.3820 90° East 23 26  Level FlightAware
02:56PM 37.6060 -122.3810 38° Northeast 26 30 180 Level FlightAware
02:56PM 37.6070 -122.3810 360° North 28 32 300 Level FlightAware
02:57PM 37.6170 -122.3740 29° Northeast 145 167 420 Level FlightAware
02:57PM 37.6248 -122.3690 27° Northeast 166 191 300 2,040 Climbing FlightAware ADS-B
02:57PM 37.6322 -122.3630 33° Northeast 164 189 800 2,520 Climbing FlightAware ADS-B
02:58PM 37.6387 -122.3580 31° Northeast 171 197 1,200 2,100 Climbing FlightAware ADS-B
02:58PM 37.6413 -122.3550 42° Northeast 176 203 1,300 1,380 Climbing FlightAware ADS-B
02:58PM 37.6507 -122.3420 48° Northeast 193 222 1,700 1,500 Climbing FlightAware ADS-B
02:58PM 37.6629 -122.3250 48° Northeast 211 243 2,200 1,680 Climbing FlightAware ADS-B
02:58PM 37.6744 -122.3100 46° Northeast 226 260 2,700 2,040 Climbing FlightAware ADS-B
02:59PM 37.6862 -122.2950 45° Northeast 236 272 3,300 1,860 Climbing FlightAware ADS-B
02:59PM 37.6991 -122.2790 44° Northeast 252 290 3,700 1,800 Climbing FlightAware ADS-B
02:59PM 37.7162 -122.2570 45° Northeast 267 307 4,400 2,340 Climbing FlightAware ADS-B
03:00PM 37.7387 -122.2330 40° Northeast 272 313 5,400 2,520 Climbing FlightAware ADS-B
03:00PM 37.7556 -122.2170 37° Northeast 276 318 6,100 2,460 Climbing FlightAware ADS-B
03:00PM 37.7749 -122.1980 38° Northeast 274 315 6,900 2,340 Climbing FlightAware ADS-B
03:01PM 37.7944 -122.1790 38° Northeast 281 323 7,600 2,280 Climbing FlightAware ADS-B
03:01PM 37.8103 -122.1640 37° Northeast 286 329 8,200 2,580 Climbing FlightAware ADS-B
03:01PM 37.8265 -122.1490 36° Northeast 286 329 8,900 2,700 Climbing FlightAware ADS-B
03:01PM 37.8427 -122.1340 36° Northeast 286 329 9,600 2,160 Climbing FlightAware ADS-B
03:02PM 37.8763 -122.1020 37° Northeast 301 346 10,600 1,560 Climbing FlightAware ADS-B
03:02PM 37.9118 -122.0670 38° Northeast 328 377 11,200 1,200 Climbing FlightAware ADS-B
03:03PM 37.9519 -122.0280 37° Northeast 351 404 11,900 1,500 Climbing FlightAware ADS-B
03:03PM 37.9934 -121.9890 37° Northeast 362 417 12,800 1,740 Climbing FlightAware ADS-B
03:04PM 38.0379 -121.9460 37° Northeast 374 430 13,800 1,740 Climbing FlightAware ADS-B
03:05PM 38.1260 -121.8610 37° Northeast 398 458 15,600 1,740 Climbing FlightAware
03:06PM 38.1860 -121.8030 37° Northeast 410 472 16,800 1,680 Climbing FlightAware
03:06PM 38.2490 -121.7410 38° Northeast 423 487 17,900 1,620 Climbing FlightAware
03:07PM 38.3160 -121.6760 37° Northeast 434 499 19,100 1,740 Climbing FlightAware
03:08PM 38.3800 -121.6140 37° Northeast 440 506 20,300 1,740 Climbing FlightAware
03:08PM 38.4490 -121.5390 40° Northeast 443 510 21,600 1,620 Climbing FlightAware
03:09PM 38.5020 -121.4530 52° Northeast 449 517 22,700 1,440 Climbing FlightAware
03:10PM 38.5570 -121.3580 53° Northeast 458 527 23,700 1,320 Climbing FlightAware
03:11PM 38.6030 -121.2790 53° Northeast 464 534 24,500 1,260 Climbing FlightAware
03:11PM 38.6640 -121.1720 54° Northeast 474 545 25,500 1,140 Climbing FlightAware
03:12PM 38.7140 -121.0860 53° Northeast 481 554 26,200 1,140 Climbing FlightAware
03:13PM 38.7620 -121.0030 53° Northeast 485 558 27,000 1,260 Climbing FlightAware
03:13PM 38.8300 -120.8860 53° Northeast 490 564 28,100 1,380 Climbing FlightAware
03:14PM 38.8830 -120.7930 54° Northeast 489 563 29,100 1,380 Climbing FlightAware
03:15PM 38.9390 -120.6970 53° Northeast 489 563 30,000 1,320 Climbing FlightAware
03:15PM 38.9950 -120.6000 53° Northeast 488 562 31,000 1,260 Climbing FlightAware
03:16PM 39.0450 -120.5130 53° Northeast 491 565 31,700 1,140 Climbing FlightAware
03:17PM 39.1150 -120.3910 53° Northeast 492 566 32,700 1,020 Climbing FlightAware
03:18PM 39.1690 -120.2970 53° Northeast 495 570 33,300 1,080 Climbing FlightAware
03:18PM 39.2260 -120.1970 54° Northeast 489 563 34,200 1,260 Climbing FlightAware
03:19PM 39.2820 -120.0990 54° Northeast 483 556 35,100 1,200 Climbing FlightAware
03:20PM 39.3310 -120.0110 54° Northeast 480 552 35,800 1,020 Climbing FlightAware
03:20PM 39.3800 -119.9240 54° Northeast 478 550 36,400 900 Climbing FlightAware
03:21PM 39.4250 -119.8450 54° Northeast 478 550 36,900 540 Climbing FlightAware
03:21PM 39.4670 -119.7700 54° Northeast 479 551 37,000 60 Climbing FlightAware
03:22PM 39.5210 -119.6740 54° Northeast 477 549 37,000  Level FlightAware
03:23PM 39.5620 -119.6000 54° Northeast 479 551 37,000  Level FlightAware
03:23PM 39.5990 -119.5340 54° Northeast 479 551 37,000  Level FlightAware
03:24PM 39.6570 -119.4310 54° Northeast 480 552 37,000  Level FlightAware
03:24PM 39.6980 -119.3560 55° Northeast 481 554 37,000  Level FlightAware
03:25PM 39.7440 -119.2730 54° Northeast 481 554 37,000  Level FlightAware
03:26PM 39.7960 -119.1810 54° Northeast 481 554 37,000  Level FlightAware
03:26PM 39.8370 -119.1050 55° Northeast 482 555 37,000  Level FlightAware
03:27PM 39.8760 -119.0340 54° Northeast 482 555 37,000  Level FlightAware
03:27PM 39.9290 -118.9390 54° Northeast 482 555 37,000  Level FlightAware
03:28PM 39.9820 -118.8400 55° Northeast 482 555 37,000  Level FlightAware
03:29PM 40.0310 -118.7510 54° Northeast 483 556 37,000  Level FlightAware
03:29PM 40.0940 -118.6350 55° Northeast 484 557 37,000  Level FlightAware
03:30PM 40.1350 -118.5380 61° Northeast 482 555 37,000  Level FlightAware
03:31PM 40.1670 -118.4310 69° East 482 555 37,000  Level FlightAware
03:31PM 40.1980 -118.3130 71° East 483 556 37,000  Level FlightAware
03:32PM 40.2300 -118.1980 70° East 484 557 37,000  Level FlightAware
03:33PM 40.2600 -118.0880 70° East 484 557 37,000  Level FlightAware
03:34PM 40.2940 -117.9620 70° East 485 558 37,000  Level FlightAware
03:34PM 40.3280 -117.8360 70° East 486 559 37,000  Level FlightAware
03:35PM 40.3560 -117.7300 71° East 487 560 37,000  Level FlightAware
03:36PM 40.3820 -117.6370 70° East 487 560 37,000  Level FlightAware
03:36PM 40.4110 -117.5330 70° East 487 560 37,000  Level FlightAware
03:37PM 40.4500 -117.3920 70° East 487 560 37,000  Level FlightAware
03:38PM 40.4740 -117.3040 70° East 487 560 37,000  Level FlightAware
03:39PM 40.5060 -117.1900 70° East 487 560 37,000  Level FlightAware
03:39PM 40.5220 -117.1310 70° East 487 560 37,000  Level FlightAware
03:40PM 40.5520 -117.0220 70° East 487 560 37,000  Level FlightAware
03:41PM 40.5840 -116.9060 70° East 487 560 37,000  Level FlightAware
03:41PM 40.6070 -116.8230 70° East 487 560 37,000  Level FlightAware
03:42PM 40.6310 -116.7360 70° East 487 560 37,000  Level FlightAware
03:43PM 40.6550 -116.6480 70° East 487 560 37,000  Level FlightAware
03:43PM 40.6870 -116.5340 70° East 487 560 37,000  Level FlightAware
03:44PM 40.7120 -116.4440 70° East 487 560 37,000  Level FlightAware
03:45PM 40.7430 -116.3300 70° East 487 560 37,000 -1,020 Level FlightAware
03:46PM 40.8519 -115.8690 73° East 481 554 35,000 -1,200 Descending FlightAware ADS-B
03:47PM 40.8738 -115.7850 71° East 480 552 35,000  Level FlightAware ADS-B
03:47PM 40.9185 -115.6450 67° East 481 554 35,000  Level FlightAware ADS-B
03:48PM 40.9377 -115.6120 52° Northeast 483 556 35,000  Level FlightAware ADS-B
03:49PM 41.0431 -115.4510 49° Northeast 482 555 35,000  Level FlightAware ADS-B
03:50PM 41.1029 -115.3590 49° Northeast 483 556 35,000  Level FlightAware ADS-B
03:50PM 41.1713 -115.2540 49° Northeast 482 555 35,000  Level FlightAware ADS-B
03:51PM 41.2088 -115.1950 50° Northeast 484 557 35,000  Level FlightAware ADS-B
03:51PM 41.2227 -115.1710 52° Northeast 485 558 35,000  Level FlightAware ADS-B
03:51PM 41.2363 -115.1410 59° Northeast 484 557 35,000  Level FlightAware ADS-B
03:51PM 41.2444 -115.1190 64° Northeast 485 558 35,000  Level FlightAware ADS-B
03:51PM 41.2531 -115.0870 70° East 486 559 35,000  Level FlightAware ADS-B
03:52PM 41.2654 -115.0220 76° East 486 559 35,000  Level FlightAware ADS-B
03:52PM 41.2729 -114.9620 81° East 487 560 35,000  Level FlightAware ADS-B
03:53PM 41.2806 -114.8730 83° East 486 559 35,000  Level FlightAware ADS-B
03:54PM 41.2964 -114.6680 84° East 486 559 35,000  Level FlightAware ADS-B
03:55PM 41.3088 -114.5180 84° East 486 559 35,000  Level FlightAware ADS-B
03:55PM 41.3164 -114.4270 84° East 484 557 35,000  Level FlightAware ADS-B
03:56PM 41.3238 -114.3370 84° East 484 557 35,000  Level FlightAware ADS-B
03:56PM 41.3280 -114.2860 84° East 484 557 35,000  Level FlightAware ADS-B
03:57PM 41.3357 -114.1900 84° East 484 557 35,000  Level FlightAware ADS-B
03:57PM 41.3441 -114.0850 84° East 484 557 35,000  Level FlightAware ADS-B
03:58PM 41.3510 -113.9960 84° East 482 555 35,000  Level FlightAware ADS-B
03:58PM 41.3580 -113.9060 84° East 481 554 35,000  Level FlightAware ADS-B
03:59PM 41.3667 -113.8160 83° East 479 551 35,000  Level FlightAware ADS-B
03:59PM 41.3775 -113.7270 81° East 478 550 35,000  Level FlightAware ADS-B
04:00PM 41.3896 -113.6340 80° East 478 550 35,000  Level FlightAware ADS-B
04:00PM 41.4009 -113.5460 80° East 476 548 35,000  Level FlightAware ADS-B
04:01PM 41.4111 -113.4670 80° East 475 547 35,000  Level FlightAware ADS-B
04:01PM 41.4140 -113.4430 81° East 475 547 35,000  Level FlightAware ADS-B
04:01PM 41.4233 -113.3700 80° East 474 545 35,000  Level FlightAware ADS-B
04:02PM 41.4371 -113.2600 80° East 473 544 35,000  Level FlightAware ADS-B
04:02PM 41.4479 -113.1730 81° East 472 543 35,000  Level FlightAware ADS-B
04:03PM 41.4600 -113.0750 81° East 473 544 35,000  Level FlightAware ADS-B
04:04PM 41.4751 -112.9520 81° East 473 544 35,000  Level FlightAware ADS-B
04:04PM 41.4857 -112.8650 81° East 474 545 35,000  Level FlightAware ADS-B
04:05PM 41.5027 -112.7250 81° East 474 545 35,000  Level FlightAware ADS-B
04:06PM 41.5140 -112.6300 81° East 474 545 35,000  Level FlightAware ADS-B
04:06PM 41.5250 -112.5380 81° East 475 547 35,000  Level FlightAware ADS-B
04:07PM 41.5357 -112.4450 81° East 476 548 35,000  Level FlightAware ADS-B
04:07PM 41.5454 -112.3530 82° East 478 550 35,000  Level FlightAware ADS-B
04:08PM 41.5592 -112.2190 82° East 478 550 35,000  Level FlightAware ADS-B
04:08PM 41.5697 -112.1180 82° East 478 550 35,000 -600 Level FlightAware ADS-B
04:09PM 41.5792 -112.0250 82° East 484 557 34,400 -1,260 Descending FlightAware ADS-B
04:10PM 41.5892 -111.9290 82° East 489 563 33,700 -1,200 Descending FlightAware ADS-B
04:10PM 41.5993 -111.8290 82° East 492 566 33,100 -720 Descending FlightAware ADS-B
04:11PM 41.6085 -111.7380 82° East 491 565 33,000 -120 Descending FlightAware ADS-B
04:11PM 41.6183 -111.6400 82° East 482 555 33,000  Level FlightAware ADS-B
04:12PM 41.6270 -111.5520 82° East 478 550 33,000  Level FlightAware ADS-B
04:12PM 41.6358 -111.4630 82° East 474 545 33,000  Level FlightAware ADS-B
04:13PM 41.6445 -111.3720 83° East 471 542 33,000  Level FlightAware ADS-B
04:13PM 41.6529 -111.2850 83° East 471 542 33,000  Level FlightAware ADS-B
04:14PM 41.6615 -111.1960 83° East 470 541 33,000  Level FlightAware ADS-B
04:14PM 41.6646 -111.1550 84° East 471 542 33,000  Level FlightAware ADS-B
04:14PM 41.6635 -111.1060 92° East 475 547 33,000  Level FlightAware ADS-B
04:15PM 41.6553 -111.0100 96° East 474 545 33,000  Level FlightAware ADS-B
04:16PM 41.6405 -110.8460 97° East 472 543 33,000  Level FlightAware ADS-B
04:16PM 41.6343 -110.7800 97° East 471 542 33,000 240 Level FlightAware ADS-B
04:19PM 41.5480 -110.3210 104° East 477 549 33,900 420 Climbing FlightAware
04:20PM 41.4878 -110.0967 104° East 484 557 35,000 420 Climbing Salt Lake Center
04:21PM 41.4386 -109.9100 109° East 480 552 35,000  Level Salt Lake Center
04:22PM 41.3958 -109.7503 110° East 480 552 35,000  Level Salt Lake Center
04:23PM 41.3453 -109.5650 110° East 481 554 35,000  Level Salt Lake Center
04:24PM 41.3161 -109.4058 104° East 470 541 35,000 120 Level Salt Lake Center
04:25PM 41.3344 -109.2225 82° East 452 520 35,300 600 Climbing Salt Lake Center
04:26PM 41.3572 -109.0667 79° East 462 532 36,300 780 Climbing Salt Lake Center
04:28PM 41.3867 -108.8928 77° East 441 507 37,000 300 Climbing Salt Lake Center
04:29PM 41.4097 -108.7422 78° East 435 501 37,000  Level Salt Lake Center
04:30PM 41.4356 -108.5669 79° East 435 501 37,000  Level Salt Lake Center
04:31PM 41.4581 -108.4164 79° East 436 502 37,000  Level Salt Lake Center
04:32PM 41.4833 -108.2417 79° East 431 496 37,000  Level Salt Lake Center
04:33PM 41.5056 -108.0892 79° East 438 504 37,000  Level Salt Lake Center
04:34PM 41.5297 -107.9122 80° East 437 503 37,000 240 Level Salt Lake Center
04:35PM 41.5519 -107.7583 79° East 441 507 37,500 720 Climbing Salt Lake Center
04:36PM 41.5700 -107.6047 81° East 440 506 38,500 180 Climbing Salt Lake Center
04:42PM 41.7040 -106.6170 81° East 451 519 39,000 60 Climbing FlightAware
04:42PM 41.7180 -106.5110 80° East 451 519 39,000  Level FlightAware
04:43PM 41.7330 -106.3930 80° East 448 516 39,000  Level FlightAware
04:44PM 41.7470 -106.2800 81° East 445 512 39,000  Level FlightAware
04:44PM 41.7610 -106.1690 80° East 442 509 39,000  Level FlightAware
04:45PM 41.7730 -106.0750 80° East 439 505 39,000  Level FlightAware
04:46PM 41.7860 -105.9650 81° East 437 503 39,000  Level FlightAware
04:46PM 41.8000 -105.8470 81° East 435 501 39,000  Level FlightAware
04:47PM 41.8120 -105.7500 81° East 435 501 39,000  Level FlightAware
04:48PM 41.8250 -105.6410 81° East 434 499 39,000  Level FlightAware
04:49PM 41.8400 -105.5210 80° East 435 501 39,000  Level FlightAware
04:49PM 41.8490 -105.4400 81° East 434 499 39,000  Level FlightAware
04:50PM 41.8630 -105.3250 81° East 435 501 39,000  Level FlightAware
04:50PM 41.8760 -105.2090 81° East 436 502 39,000  Level FlightAware
04:51PM 41.8826 -105.1540 81° East 436 502 39,000  Level FlightAware ADS-B
04:51PM 41.8920 -105.0730 81° East 435 501 39,000  Level FlightAware ADS-B
04:52PM 41.9015 -104.9900 81° East 436 502 39,000  Level FlightAware ADS-B
04:52PM 41.9107 -104.9090 81° East 435 501 39,000  Level FlightAware ADS-B
04:53PM 41.9198 -104.8290 81° East 435 501 39,000  Level FlightAware ADS-B
04:53PM 41.9289 -104.7480 81° East 436 502 39,000  Level FlightAware ADS-B
04:54PM 41.9380 -104.6660 81° East 437 503 39,000  Level FlightAware ADS-B
04:54PM 41.9472 -104.5840 81° East 438 504 39,000  Level FlightAware ADS-B
04:55PM 41.9563 -104.5010 82° East 438 504 39,000  Level FlightAware ADS-B
04:55PM 41.9651 -104.4200 82° East 436 502 39,000  Level FlightAware ADS-B
04:56PM 41.9740 -104.3390 82° East 436 502 39,000  Level FlightAware ADS-B
04:56PM 41.9829 -104.2560 82° East 435 501 39,000  Level FlightAware ADS-B
04:57PM 41.9916 -104.1750 82° East 434 499 39,000  Level FlightAware ADS-B
04:57PM 42.0004 -104.0930 82° East 434 499 39,000  Level FlightAware ADS-B
04:58PM 42.0100 -104.0010 82° East 434 499 39,000  Level FlightAware ADS-B
04:58PM 42.0185 -103.9210 82° East 438 504 39,000  Level FlightAware ADS-B
04:59PM 42.0269 -103.8400 82° East 440 506 39,000  Level FlightAware ADS-B
05:00PM 42.0357 -103.7540 82° East 442 509 39,000  Level FlightAware ADS-B
05:00PM 42.0440 -103.6730 82° East 439 505 39,000  Level FlightAware ADS-B
05:01PM 42.0524 -103.5910 82° East 439 505 39,000  Level FlightAware ADS-B
05:01PM 42.0606 -103.5110 82° East 438 504 39,000  Level FlightAware ADS-B
05:02PM 42.0695 -103.4210 82° East 438 504 39,000  Level FlightAware ADS-B
05:02PM 42.0788 -103.3290 82° East 440 506 39,000  Level FlightAware ADS-B
05:03PM 42.0880 -103.2350 82° East 440 506 39,000  Level FlightAware ADS-B
05:03PM 42.0991 -103.1210 82° East 442 509 39,000  Level FlightAware ADS-B
05:04PM 42.1079 -103.0300 83° East 443 510 39,000  Level FlightAware ADS-B
05:04PM 42.1159 -102.9470 83° East 445 512 39,000  Level FlightAware ADS-B
05:05PM 42.1240 -102.8630 83° East 447 514 39,000  Level FlightAware ADS-B
05:06PM 42.1320 -102.7780 83° East 450 518 39,000  Level FlightAware ADS-B
05:06PM 42.1399 -102.6940 83° East 450 518 39,000  Level FlightAware ADS-B
05:07PM 42.1479 -102.6070 83° East 451 519 39,000  Level FlightAware ADS-B
05:07PM 42.1570 -102.5080 83° East 450 518 39,000  Level FlightAware ADS-B
05:08PM 42.1705 -102.3600 83° East 450 518 39,000  Level FlightAware ADS-B
05:09PM 42.1827 -102.2240 83° East 449 517 39,000  Level FlightAware ADS-B
05:09PM 42.1915 -102.1250 83° East 448 516 39,000  Level FlightAware ADS-B
05:10PM 42.2020 -102.0060 83° East 447 514 39,000  Level FlightAware ADS-B
05:11PM 42.2133 -101.8650 83° East 442 509 39,000  Level Minneapolis Center
05:12PM 42.2275 -101.6989 83° East 445 512 39,000  Level Minneapolis Center
05:13PM 42.2414 -101.5361 83° East 440 506 39,000  Level Minneapolis Center
05:14PM 42.2572 -101.3392 84° East 440 506 39,000  Level Minneapolis Center
05:15PM 42.2711 -101.1747 83° East 440 506 39,000  Level Minneapolis Center
05:16PM 42.2839 -101.0108 84° East 440 506 39,000  Level Minneapolis Center
05:17PM 42.2978 -100.8353 84° East 438 504 39,000  Level Denver Center
05:23PM 42.3663 -99.8933 84° East 437 503 39,000  Level FlightAware ADS-B
05:24PM 42.3720 -99.8092 85° East 437 503 39,000  Level FlightAware ADS-B
05:24PM 42.3778 -99.7236 85° East 438 504 39,000  Level FlightAware ADS-B
05:25PM 42.3832 -99.6421 85° East 438 504 39,000  Level FlightAware ADS-B
05:25PM 42.3886 -99.5590 85° East 440 506 39,000  Level FlightAware ADS-B
05:26PM 42.3943 -99.4735 85° East 441 507 39,000  Level FlightAware ADS-B
05:26PM 42.3997 -99.3890 85° East 443 510 39,000  Level FlightAware ADS-B
05:27PM 42.4110 -99.2092 85° East 446 513 39,000  Level FlightAware ADS-B
05:28PM 42.4188 -99.0829 85° East 448 516 39,000  Level FlightAware ADS-B
05:29PM 42.4242 -98.9955 85° East 449 517 39,000  Level FlightAware ADS-B
05:29PM 42.4283 -98.9275 85° East 448 516 39,000  Level FlightAware ADS-B
05:29PM 42.4333 -98.8431 85° East 450 518 39,000  Level FlightAware ADS-B
05:30PM 42.4383 -98.7570 85° East 451 519 39,000  Level FlightAware ADS-B
05:30PM 42.4432 -98.6720 86° East 452 520 39,000  Level FlightAware ADS-B
05:31PM 42.4495 -98.5617 86° East 453 521 39,000  Level FlightAware ADS-B
05:32PM 42.4543 -98.4765 86° East 454 522 39,000  Level FlightAware ADS-B
05:32PM 42.4591 -98.3913 86° East 455 524 39,000  Level FlightAware ADS-B
05:33PM 42.4639 -98.3025 86° East 456 525 39,000  Level FlightAware ADS-B
05:33PM 42.4686 -98.2152 86° East 455 524 39,000  Level FlightAware ADS-B
05:34PM 42.4733 -98.1273 86° East 455 524 39,000  Level FlightAware ADS-B
05:34PM 42.4778 -98.0414 86° East 455 524 39,000  Level FlightAware ADS-B
05:35PM 42.4824 -97.9531 86° East 455 524 39,000  Level FlightAware ADS-B
05:35PM 42.4868 -97.8658 86° East 455 524 39,000  Level FlightAware ADS-B
05:36PM 42.4910 -97.7809 86° East 456 525 39,000  Level FlightAware ADS-B
05:36PM 42.4953 -97.6940 86° East 456 525 39,000  Level FlightAware ADS-B
05:37PM 42.4995 -97.6078 86° East 456 525 39,000  Level FlightAware ADS-B
05:37PM 42.5037 -97.5194 86° East 456 525 39,000  Level FlightAware ADS-B
05:38PM 42.5078 -97.4341 86° East 456 525 39,000  Level FlightAware ADS-B
05:38PM 42.5119 -97.3460 86° East 457 526 39,000  Level FlightAware ADS-B
05:39PM 42.5159 -97.2593 86° East 458 527 39,000  Level FlightAware ADS-B
05:39PM 42.5197 -97.1734 87° East 458 527 39,000  Level FlightAware ADS-B
05:40PM 42.5234 -97.0876 87° East 457 526 39,000  Level FlightAware ADS-B
05:40PM 42.5274 -96.9962 87° East 459 528 39,000  Level FlightAware ADS-B
05:41PM 42.5311 -96.9097 87° East 460 529 39,000  Level FlightAware ADS-B
05:41PM 42.5352 -96.8119 87° East 460 529 39,000  Level FlightAware ADS-B
05:42PM 42.5392 -96.7145 87° East 462 532 39,000  Level FlightAware ADS-B
05:42PM 42.5427 -96.6257 87° East 463 533 39,000  Level FlightAware ADS-B
05:43PM 42.5460 -96.5388 87° East 463 533 39,000  Level FlightAware ADS-B
05:43PM 42.5494 -96.4507 87° East 461 531 39,000  Level FlightAware ADS-B
05:44PM 42.5527 -96.3631 87° East 462 532 39,000  Level FlightAware ADS-B
05:45PM 42.5562 -96.2695 87° East 462 532 39,000  Level FlightAware ADS-B
05:45PM 42.5593 -96.1824 87° East 461 531 39,000  Level FlightAware ADS-B
05:46PM 42.5624 -96.0966 87° East 459 528 39,000  Level FlightAware ADS-B
05:46PM 42.5655 -96.0066 87° East 459 528 39,000  Level FlightAware ADS-B
05:47PM 42.5684 -95.9201 87° East 460 529 39,000  Level FlightAware ADS-B
05:47PM 42.5714 -95.8293 87° East 461 531 39,000  Level FlightAware ADS-B
05:48PM 42.5742 -95.7418 87° East 462 532 39,000  Level FlightAware ADS-B
05:48PM 42.5770 -95.6532 88° East 462 532 39,000  Level FlightAware ADS-B
05:49PM 42.5797 -95.5654 88° East 462 532 39,000  Level FlightAware ADS-B
05:49PM 42.5823 -95.4784 88° East 461 531 39,000  Level FlightAware ADS-B
05:50PM 42.5849 -95.3905 88° East 461 531 39,000  Level FlightAware ADS-B
05:50PM 42.5874 -95.3015 88° East 462 532 39,000  Level FlightAware ADS-B
05:51PM 42.5898 -95.2148 88° East 463 533 39,000  Level FlightAware ADS-B
05:51PM 42.5921 -95.1276 88° East 464 534 39,000  Level FlightAware ADS-B
05:52PM 42.5945 -95.0366 88° East 463 533 39,000  Level FlightAware ADS-B
05:52PM 42.5966 -94.9490 88° East 464 534 39,000  Level FlightAware ADS-B
05:53PM 42.5989 -94.8591 88° East 464 534 39,000  Level FlightAware ADS-B
05:53PM 42.6010 -94.7694 88° East 464 534 39,000  Level FlightAware ADS-B
05:54PM 42.6031 -94.6815 88° East 463 533 39,000  Level FlightAware ADS-B
05:54PM 42.6049 -94.5946 88° East 464 534 39,000  Level FlightAware ADS-B
05:55PM 42.6068 -94.5075 88° East 464 534 39,000  Level FlightAware ADS-B
05:55PM 42.6087 -94.4191 88° East 465 535 39,000  Level FlightAware ADS-B
05:56PM 42.6107 -94.3285 88° East 465 535 39,000  Level FlightAware ADS-B
05:56PM 42.6134 -94.2592 87° East 464 534 39,000  Level FlightAware ADS-B
05:57PM 42.6134 -94.1706 90° East 463 533 39,000  Level FlightAware ADS-B
05:57PM 42.6128 -94.0481 90° East 462 532 39,000  Level FlightAware ADS-B
05:58PM 42.6131 -93.9581 90° East 462 532 39,000  Level FlightAware ADS-B
05:58PM 42.6138 -93.8713 89° East 463 533 39,000  Level FlightAware ADS-B
05:59PM 42.6146 -93.7702 89° East 464 534 39,000  Level FlightAware ADS-B
06:00PM 42.6160 -93.5640 89° East 465 535 39,000  Level FlightAware
06:01PM 42.6160 -93.4540 90° East 466 536 39,000  Level FlightAware
06:01PM 42.6170 -93.3250 89° East 467 537 39,000  Level FlightAware
06:02PM 42.6170 -93.1910 90° East 467 537 39,000  Level FlightAware
06:03PM 42.6170 -93.1020 90° East 467 537 39,000  Level FlightAware
06:03PM 42.6170 -92.9920 90° East 467 537 39,000  Level FlightAware
06:04PM 42.6160 -92.8700 91° East 468 539 39,000  Level FlightAware
06:05PM 42.6160 -92.7570 90° East 468 539 39,000  Level FlightAware
06:05PM 42.6150 -92.6240 91° East 470 541 39,000  Level FlightAware
06:06PM 42.6150 -92.5000 90° East 471 542 39,000  Level FlightAware
06:08PM 42.6130 -92.1980 90° East 471 542 39,000  Level FlightAware
06:09PM 42.6110 -92.0700 91° East 471 542 39,000  Level FlightAware
06:09PM 42.6100 -91.9550 91° East 471 542 39,000  Level FlightAware
06:10PM 42.6090 -91.8080 90° East 470 541 39,000  Level FlightAware
06:11PM 42.6070 -91.6460 91° East 470 541 39,000  Level FlightAware
06:12PM 42.6050 -91.5280 91° East 470 541 39,000  Level FlightAware
06:12PM 42.6030 -91.4170 91° East 472 543 39,000  Level FlightAware
06:13PM 42.6010 -91.2980 91° East 474 545 39,000  Level FlightAware
06:14PM 42.6000 -91.2020 91° East 474 545 39,000  Level FlightAware
06:14PM 42.5980 -91.0980 91° East 474 545 39,000  Level FlightAware
06:16PM 42.5930 -90.8590 92° East 475 547 39,000  Level FlightAware
06:16PM 42.5900 -90.6910 91° East 475 547 39,000  Level FlightAware
06:17PM 42.5870 -90.5740 92° East 476 548 39,000  Level FlightAware
06:18PM 42.5840 -90.4460 92° East 476 548 39,000  Level FlightAware
06:18PM 42.5810 -90.3200 92° East 477 549 39,000  Level FlightAware
06:19PM 42.5790 -90.2220 92° East 479 551 39,000  Level FlightAware
06:20PM 42.5750 -90.0890 92° East 481 554 39,000  Level FlightAware
06:20PM 42.5720 -89.9700 92° East 482 555 39,000  Level FlightAware
06:21PM 42.5680 -89.8340 92° East 482 555 39,000  Level FlightAware
06:22PM 42.5640 -89.7030 92° East 481 554 39,000  Level FlightAware
06:22PM 42.5610 -89.6060 92° East 479 551 39,000  Level FlightAware
06:23PM 42.5590 -89.5180 92° East 479 551 39,000  Level FlightAware
06:24PM 42.5550 -89.3970 93° East 480 552 39,000  Level FlightAware
06:24PM 42.5500 -89.2710 93° East 479 551 39,000  Level FlightAware
06:25PM 42.5460 -89.1410 92° East 478 550 39,000  Level FlightAware
06:26PM 42.5410 -89.0080 93° East 478 550 39,000  Level FlightAware
06:26PM 42.5380 -88.9130 92° East 476 548 39,000  Level FlightAware
06:27PM 42.5330 -88.7870 93° East 475 547 39,000  Level FlightAware
06:28PM 42.5280 -88.6690 93° East 473 544 39,000  Level FlightAware
06:28PM 42.5230 -88.5400 93° East 471 542 39,000  Level FlightAware
06:29PM 42.5180 -88.4140 93° East 472 543 39,000  Level FlightAware
06:30PM 42.5130 -88.2890 93° East 474 545 39,000  Level FlightAware
06:31PM 42.5070 -88.1630 94° East 473 544 39,000  Level FlightAware
06:31PM 42.5040 -88.0860 93° East 474 545 39,000  Level FlightAware
06:32PM 42.5000 -87.9550 92° East 478 550 39,000  Level FlightAware
06:32PM 42.5000 -87.8410 90° East 482 555 39,000  Level FlightAware
06:33PM 42.5000 -87.7270 90° East 487 560 39,000  Level FlightAware
06:34PM 42.5000 -87.6230 90° East 489 563 39,000  Level FlightAware
06:34PM 42.4990 -87.5570 91° East 491 565 39,000  Level FlightAware
06:35PM 42.4990 -87.4060 90° East 494 568 39,000  Level FlightAware
06:35PM 42.4980 -87.2770 91° East 495 570 39,000  Level FlightAware
06:36PM 42.4970 -87.1430 91° East 497 572 39,000  Level FlightAware
06:37PM 42.4960 -86.9690 90° East 496 571 39,000  Level FlightAware
06:38PM 42.4950 -86.8500 91° East 496 571 39,000  Level FlightAware
06:38PM 42.4930 -86.7350 91° East 496 571 39,000  Level FlightAware
06:39PM 42.4920 -86.5940 91° East 497 572 39,000  Level FlightAware
06:40PM 42.4910 -86.4900 91° East 499 574 39,000  Level FlightAware
06:40PM 42.4890 -86.3640 91° East 500 575 39,000  Level FlightAware
06:41PM 42.4870 -86.2580 91° East 501 577 39,000  Level FlightAware
06:42PM 42.4850 -86.1210 91° East 501 577 39,000  Level FlightAware
06:42PM 42.4830 -85.9880 91° East 502 578 39,000  Level FlightAware
06:43PM 42.4810 -85.8580 91° East 502 578 39,000  Level FlightAware
06:44PM 42.4780 -85.7310 92° East 502 578 39,000  Level FlightAware
06:44PM 42.4760 -85.5990 91° East 502 578 39,000  Level FlightAware
06:45PM 42.4730 -85.4680 92° East 501 577 39,000  Level FlightAware
06:46PM 42.4710 -85.3750 92° East 499 574 39,000  Level FlightAware
06:46PM 42.4680 -85.2500 92° East 497 572 39,000  Level FlightAware
06:47PM 42.4650 -85.1220 92° East 495 570 39,000  Level FlightAware
06:48PM 42.4620 -85.0050 92° East 494 568 39,000  Level FlightAware
06:48PM 42.4600 -84.9220 92° East 493 567 39,000  Level FlightAware
06:49PM 42.4560 -84.7990 92° East 490 564 39,000  Level FlightAware
06:49PM 42.4480 -84.6660 95° East 490 564 39,000  Level FlightAware
06:50PM 42.4400 -84.5370 95° East 492 566 39,000  Level FlightAware
06:51PM 42.4320 -84.4000 94° East 494 568 39,000  Level FlightAware
06:51PM 42.4260 -84.2840 94° East 497 572 39,000  Level FlightAware
06:52PM 42.4190 -84.1730 95° East 500 575 39,000  Level FlightAware
06:53PM 42.4120 -84.0560 95° East 501 577 39,000  Level FlightAware
06:53PM 42.4030 -83.9050 95° East 503 579 39,000  Level FlightAware
06:54PM 42.3950 -83.7810 95° East 502 578 39,000  Level FlightAware
06:55PM 42.3860 -83.6360 95° East 500 575 39,000  Level FlightAware
06:56PM 42.3780 -83.5130 95° East 500 575 39,000  Level FlightAware
06:56PM 42.3700 -83.3930 95° East 501 577 39,000  Level FlightAware
06:57PM 42.3610 -83.2580 95° East 501 577 39,000  Level FlightAware
06:58PM 42.3510 -83.1160 95° East 503 579 39,000  Level FlightAware
06:58PM 42.3430 -82.9900 95° East 504 580 39,000  Level FlightAware
06:59PM 42.3330 -82.8510 96° East 505 581 39,000  Level FlightAware
07:00PM 42.3240 -82.7210 95° East 506 582 39,000  Level FlightAware
07:00PM 42.3150 -82.6030 96° East 506 582 39,000  Level FlightAware
07:01PM 42.3070 -82.4930 96° East 506 582 39,000  Level FlightAware
07:02PM 42.2960 -82.3480 96° East 506 582 39,000  Level FlightAware
07:02PM 42.2880 -82.2380 96° East 507 583 39,000  Level FlightAware
07:03PM 42.2780 -82.1130 96° East 508 585 39,000  Level FlightAware
07:04PM 42.2690 -81.9970 96° East 508 585 39,000  Level FlightAware
07:04PM 42.2620 -81.9140 96° East 507 583 39,000  Level FlightAware
07:05PM 42.2520 -81.7810 96° East 507 583 39,000  Level FlightAware
07:06PM 42.2390 -81.6280 96° East 507 583 39,000  Level FlightAware
07:06PM 42.2290 -81.5030 96° East 507 583 39,000  Level FlightAware
07:07PM 42.2180 -81.3710 96° East 507 583 39,000  Level FlightAware
07:08PM 42.2080 -81.2610 97° East 508 585 39,000  Level FlightAware
07:08PM 42.2000 -81.1630 96° East 509 586 39,000  Level FlightAware
07:09PM 42.1890 -81.0360 97° East 510 587 39,000  Level FlightAware
07:09PM 42.1780 -80.9080 97° East 511 588 39,000  Level FlightAware
07:10PM 42.1690 -80.8110 97° East 512 589 39,000  Level FlightAware
07:11PM 42.1500 -80.5980 97° East 513 590 39,000  Level FlightAware
07:12PM 42.1380 -80.4700 97° East 515 593 39,000  Level FlightAware
07:13PM 42.1250 -80.3340 97° East 495 570 39,000  Level FlightAware
07:13PM 42.1150 -80.2260 97° East 487 560 39,000  Level FlightAware
07:14PM 42.1040 -80.1110 97° East 479 551 39,000  Level FlightAware
07:15PM 42.0910 -79.9760 97° East 486 559 39,000  Level FlightAware
07:15PM 42.0820 -79.8820 97° East 491 565 39,000  Level FlightAware
07:16PM 42.0700 -79.7580 97° East 486 559 39,000  Level FlightAware
07:16PM 42.0570 -79.6290 98° East 474 545 39,000  Level FlightAware
07:17PM 42.0440 -79.4950 97° East 471 542 39,000  Level FlightAware
07:18PM 42.0310 -79.3700 98° East 482 555 39,000  Level FlightAware
07:19PM 42.0180 -79.2410 98° East 483 556 39,000  Level FlightAware
07:19PM 42.0060 -79.1290 98° East 477 549 39,000  Level FlightAware
07:20PM 41.9940 -79.0180 98° East 469 540 39,000  Level FlightAware
07:21PM 41.9820 -78.9050 98° East 462 532 39,000  Level FlightAware
07:21PM 41.9730 -78.8140 98° East 458 527 39,000  Level FlightAware
07:22PM 41.9590 -78.6930 99° East 460 529 39,000  Level FlightAware
07:22PM 41.9480 -78.5880 98° East 472 543 39,000  Level FlightAware
07:23PM 41.9340 -78.4650 99° East 478 550 39,000  Level FlightAware
07:24PM 41.9210 -78.3440 98° East 485 558 39,000  Level FlightAware
07:24PM 41.9090 -78.2370 99° East 485 558 39,000  Level FlightAware
07:25PM 41.8940 -78.1020 98° East 486 559 39,000  Level FlightAware
07:26PM 41.8800 -77.9840 99° East 488 562 39,000  Level FlightAware
07:27PM 41.8630 -77.8490 100° East 489 563 39,000  Level FlightAware
07:27PM 41.8330 -77.7260 108° East 481 554 39,000  Level FlightAware
07:28PM 41.8080 -77.6360 110° East 478 550 39,000  Level FlightAware
07:29PM 41.7770 -77.5220 110° East 470 541 39,000  Level FlightAware
07:29PM 41.7540 -77.4340 109° East 467 537 39,000  Level FlightAware
07:30PM 41.7260 -77.3300 110° East 468 539 39,000 -240 Level FlightAware
07:30PM 41.6920 -77.2020 110° East 470 541 38,700 -780 Descending FlightAware
07:31PM 41.6792 -77.1534 109° East 469 540 38,200 -1,500 Descending FlightAware ADS-B
07:32PM 41.6420 -77.0140 110° East 460 529 37,000 -1,440 Descending FlightAware
07:32PM 41.6324 -76.9799 111° Southeast 458 527 36,700 -1,320 Descending FlightAware ADS-B
07:33PM 41.6024 -76.8697 110° East 453 521 35,800 -1,320 Descending FlightAware ADS-B
07:33PM 41.5750 -76.7680 110° East 449 517 34,900 -1,680 Descending FlightAware
07:34PM 41.5584 -76.7091 111° Southeast 456 525 34,100 -1,740 Descending FlightAware ADS-B
07:34PM 41.5312 -76.6102 110° East 455 524 33,300 -1,140 Descending FlightAware ADS-B
07:35PM 41.5085 -76.5278 110° East 445 512 32,800 -1,080 Descending FlightAware ADS-B
07:35PM 41.4834 -76.4369 110° East 438 504 32,100 -1,260 Descending FlightAware ADS-B
07:36PM 41.4604 -76.3544 110° East 435 501 31,400 -1,260 Descending FlightAware ADS-B
07:36PM 41.4362 -76.2677 110° East 431 496 30,700 -1,200 Descending FlightAware ADS-B
07:37PM 41.4137 -76.1871 110° East 427 491 30,100 -1,080 Descending FlightAware ADS-B
07:38PM 41.3849 -76.0846 111° Southeast 421 484 29,400 -1,020 Descending FlightAware ADS-B
07:38PM 41.3639 -76.0099 111° Southeast 414 476 28,900 -1,140 Descending FlightAware ADS-B
07:39PM 41.3413 -75.9300 111° Southeast 416 479 28,200 -1,320 Descending FlightAware ADS-B
07:39PM 41.3179 -75.8482 111° Southeast 457 526 27,500 -1,380 Descending FlightAware ADS-B
07:40PM 41.2950 -75.7678 111° Southeast 467 537 26,800 -1,560 Descending FlightAware ADS-B
07:40PM 41.2686 -75.6783 111° Southeast 461 531 25,900 -1,740 Descending FlightAware ADS-B
07:41PM 41.2436 -75.6010 113° Southeast 455 524 25,000 -1,680 Descending FlightAware ADS-B
07:41PM 41.2179 -75.5239 114° Southeast 445 512 24,200 -1,620 Descending FlightAware ADS-B
07:42PM 41.1930 -75.4497 114° Southeast 440 506 23,400 -1,140 Descending FlightAware ADS-B
07:42PM 41.1644 -75.3649 114° Southeast 436 502 23,000 -420 Descending FlightAware ADS-B
07:43PM 41.1389 -75.2896 114° Southeast 440 506 23,000  Level FlightAware ADS-B
07:43PM 41.1142 -75.2164 114° Southeast 425 489 23,000  Level FlightAware ADS-B
07:44PM 41.0907 -75.1467 114° Southeast 398 458 23,000 -420 Level FlightAware ADS-B
07:45PM 41.0668 -75.0764 114° Southeast 390 449 22,600 -780 Descending FlightAware ADS-B
07:45PM 41.0449 -75.0119 114° Southeast 376 433 22,200 -840 Descending FlightAware ADS-B
07:46PM 41.0236 -74.9499 114° Southeast 366 421 21,800 -840 Descending FlightAware ADS-B
07:46PM 41.0041 -74.8921 114° Southeast 362 417 21,400 -780 Descending FlightAware ADS-B
07:46PM 40.9984 -74.8699 109° East 363 418 21,300 -780 Descending FlightAware ADS-B
07:47PM 40.9883 -74.8035 101° East 366 421 20,900 -840 Descending FlightAware ADS-B
07:47PM 40.9811 -74.7358 98° East 368 423 20,500 -840 Descending FlightAware ADS-B
07:48PM 40.9742 -74.6686 98° East 368 423 20,100 -900 Descending FlightAware ADS-B
07:48PM 40.9664 -74.5959 98° East 364 419 19,600 -900 Descending FlightAware ADS-B
07:49PM 40.9577 -74.5167 98° East 363 418 19,100 -540 Descending FlightAware ADS-B
07:49PM 40.9493 -74.4414 98° East 360 414 19,000 -120 Descending FlightAware ADS-B
07:50PM 40.9400 -74.3582 98° East 362 417 19,000  Level FlightAware ADS-B
07:51PM 40.9330 -74.2976 99° East 363 418 19,000  Level FlightAware ADS-B
07:51PM 40.9258 -74.2683 108° East 356 410 19,000  Level FlightAware ADS-B
07:51PM 40.9179 -74.2507 121° Southeast 349 402 19,000  Level FlightAware ADS-B
07:51PM 40.9125 -74.2420 129° Southeast 347 399 19,000  Level FlightAware ADS-B
07:51PM 40.8828 -74.2080 139° Southeast 345 397 19,000  Level FlightAware ADS-B
07:52PM 40.8441 -74.1680 142° Southeast 344 396 19,000 -120 Level FlightAware ADS-B
07:52PM 40.8062 -74.1290 142° Southeast 342 394 18,900 -720 Descending FlightAware ADS-B
07:53PM 40.7780 -74.0999 142° Southeast 340 391 18,400 -1,500 Descending FlightAware ADS-B
07:53PM 40.7601 -74.0813 142° Southeast 340 391 18,000 -1,680 Descending FlightAware ADS-B
07:53PM 40.7331 -74.0533 142° Southeast 337 388 17,400 -1,500 Descending FlightAware ADS-B
07:54PM 40.7214 -74.0411 142° Southeast 336 387 17,200 -1,620 Descending FlightAware ADS-B
07:54PM 40.6868 -74.0047 141° Southeast 336 387 16,400 -1,560 Descending FlightAware ADS-B
07:54PM 40.6728 -73.9825 130° Southeast 338 389 16,100 -1,440 Descending FlightAware ADS-B
07:55PM 40.6514 -73.9431 126° Southeast 334 384 15,500 -1,680 Descending FlightAware ADS-B
07:55PM 40.6458 -73.9348 132° Southeast 331 381 15,300 -1,500 Descending FlightAware ADS-B
07:55PM 40.6349 -73.9216 137° Southeast 327 376 15,100 -1,380 Descending FlightAware ADS-B
07:55PM 40.5997 -73.8846 141° Southeast 320 368 14,400 -1,500 Descending FlightAware ADS-B
07:56PM 40.5643 -73.8479 142° Southeast 315 362 13,600 -1,920 Descending FlightAware ADS-B
07:56PM 40.5340 -73.8171 142° Southeast 308 354 12,600 -2,520 Descending FlightAware ADS-B
07:56PM 40.5303 -73.8140 148° Southeast 306 352 12,400 -3,000 Descending FlightAware ADS-B
07:57PM 40.5249 -73.8104 153° Southeast 302 348 12,200 -2,400 Descending FlightAware ADS-B
07:57PM 40.5117 -73.8053 164° South 295 339 11,800 -2,040 Descending FlightAware ADS-B
07:57PM 40.5008 -73.8047 178° South 289 333 11,600 -1,680 Descending FlightAware ADS-B
07:57PM 40.4782 -73.8097 190° South 284 327 11,100 -1,500 Descending FlightAware ADS-B
07:57PM 40.4637 -73.8142 193° South 283 326 10,900 -1,440 Descending FlightAware ADS-B
07:58PM 40.4288 -73.8255 194° South 281 323 10,200 -1,440 Descending FlightAware ADS-B
07:58PM 40.4097 -73.8315 193° South 278 320 9,900 -1,380 Descending FlightAware ADS-B
07:58PM 40.3896 -73.8375 193° South 275 316 9,500 -1,860 Descending FlightAware ADS-B
07:59PM 40.3693 -73.8434 192° South 272 313 8,900 -2,040 Descending FlightAware ADS-B
07:59PM 40.3463 -73.8494 191° South 272 313 8,300 -2,100 Descending FlightAware ADS-B
07:59PM 40.3370 -73.8492 179° South 276 318 8,000 -1,860 Descending FlightAware ADS-B
07:59PM 40.3296 -73.8470 167° South 278 320 7,900 -1,860 Descending FlightAware ADS-B
07:59PM 40.3211 -73.8422 157° South 283 326 7,600 -2,220 Descending FlightAware ADS-B
07:59PM 40.3165 -73.8383 147° Southeast 284 327 7,500 -1,740 Descending FlightAware ADS-B
07:59PM 40.3071 -73.8256 134° Southeast 290 334 7,200 -1,740 Descending FlightAware ADS-B
08:00PM 40.2999 -73.8087 119° Southeast 295 339 6,900 -1,080 Descending FlightAware ADS-B
08:00PM 40.2908 -73.7816 114° Southeast 300 345 6,700 -300 Descending FlightAware ADS-B
08:00PM 40.2778 -73.7399 112° Southeast 298 343 6,700  Level FlightAware ADS-B
08:01PM 40.2778 -73.7103 90° East 299 344 6,700  Level FlightAware ADS-B
08:01PM 40.2849 -73.6896 66° East 299 344 6,700  Level FlightAware ADS-B
08:01PM 40.2993 -73.6716 44° Northeast 293 337 6,700  Level FlightAware ADS-B
08:01PM 40.3187 -73.6565 31° Northeast 295 339 6,700  Level FlightAware ADS-B
08:02PM 40.3486 -73.6343 30° Northeast 296 341 6,700  Level FlightAware ADS-B
08:02PM 40.3705 -73.6181 29° Northeast 296 341 6,700  Level FlightAware ADS-B
08:02PM 40.3887 -73.6049 29° Northeast 295 339 6,700  Level FlightAware ADS-B
08:03PM 40.4067 -73.5917 29° Northeast 296 341 6,700  Level FlightAware ADS-B
08:03PM 40.4303 -73.5744 29° Northeast 297 342 6,700  Level FlightAware ADS-B
08:03PM 40.4484 -73.5611 29° Northeast 297 342 6,700  Level FlightAware ADS-B
08:03PM 40.4729 -73.5429 29° Northeast 295 339 6,700 -180 Level FlightAware ADS-B
08:04PM 40.4982 -73.5239 30° Northeast 299 344 6,600 -1,080 Descending FlightAware ADS-B
08:05PM 40.5630 -73.4770 29° Northeast 289 333 5,400 -1,260 Descending FlightAware
08:05PM 40.6000 -73.4510 28° Northeast 277 319 4,800 -780 Descending FlightAware
08:06PM 40.6260 -73.4330 28° Northeast 251 289 4,700 -960 Descending FlightAware
08:06PM 40.6550 -73.4120 29° Northeast 239 275 4,000 -1,560 Descending FlightAware
08:07PM 40.6850 -73.3950 23° Northeast 235 270 3,200 -1,320 Descending FlightAware
08:07PM 40.7100 -73.4030 346° North 227 261 2,800 -600 Descending FlightAware
08:08PM 40.7380 -73.4190 337° Northwest 224 258 2,700  Descending FlightAware
08:08PM 40.7460 -73.4320 309° West 218 251 2,800  Climbing FlightAware
08:08PM 40.7590 -73.4630 299° West 215 247 2,700 -480 Descending FlightAware
08:09PM 40.7740 -73.4940 303° West 212 244 2,400 -900 Descending FlightAware
08:09PM 40.7850 -73.5180 301° West 211 243 2,000 -660 Descending FlightAware
08:10PM 40.8060 -73.5640 301° West 187 215 1,700 -240 Descending FlightAware
08:10PM 40.8070 -73.5720 279° West 176 203 1,800  Climbing FlightAware
08:10PM 40.8020 -73.5940 253° West 168 193 1,700 -120 Descending FlightAware
08:11PM 40.7860 -73.6380 244° Southwest 169 194 1,700  Level FlightAware
08:11PM 40.7740 -73.6530 223° Southwest 170 196 1,700  Level FlightAware
08:12PM 40.7520 -73.6720 213° Southwest 168 193 1,700  Level FlightAware
08:12PM 40.7400 -73.6810 210° Southwest 171 197 1,700 -300 Level FlightAware
08:13PM 40.7250 -73.6930 211° Southwest 162 186 1,500 -720 Descending FlightAware
08:13PM 40.7050 -73.7080 210° Southwest 151 174 1,100 -780 Descending FlightAware
08:13PM 40.6960 -73.7150 211° Southwest 135 155 900 -720 Descending FlightAware
08:14PM 40.6820 -73.7260 211° Southwest 122 140 600 -660 Descending FlightAware
08:14PM 40.6680 -73.7370 211° Southwest 120 138 300 -600 Descending FlightAware
08:15PM 40.6570 -73.7460 212° Southwest 121 139 100 -540 Descending FlightAware
08:15PM 40.6430 -73.7560 208° Southwest 115 132 -240 Descending FlightAware
08:16PM 40.6370 -73.7610 212° Southwest 62 71  Level FlightAware
08:16PM 40.6320 -73.7650 211° Southwest 37 43  Level FlightAware